Time,TemperatureF,DewpointF,PressureIn,WindDirection,WindDirectionDegrees,WindSpeedMPH,WindSpeedGustMPH,Humidity,HourlyPrecipIn,Conditions,Clouds,dailyrainin,SoftwareType,DateUTC
2013-10-09 00:13:00,53.2,50.9,29.62,ENE,67,0.0,-999.0,92,-99.99,,,0.00,Acu-Link.com,2013-10-09 07:13:00,
2013-10-09 00:29:00,52.9,50.6,29.61,ENE,67,0.0,-999.0,92,-99.99,,,0.00,Acu-Link.com,2013-10-09 07:29:00,
2013-10-09 00:45:00,52.5,50.5,29.61,SSE,157,0.0,-999.0,93,-99.99,,,0.00,Acu-Link.com,2013-10-09 07:45:00,
2013-10-09 01:00:00,52.0,50.0,29.61,South,180,0.0,-999.0,93,-99.99,,,0.00,Acu-Link.com,2013-10-09 08:00:00,
2013-10-09 01:15:00,51.3,49.3,29.61,NNE,22,0.0,-999.0,93,-99.99,,,0.00,Acu-Link.com,2013-10-09 08:15:00,
2013-10-09 01:31:00,50.9,49.2,29.61,SSE,157,0.0,-999.0,94,-99.99,,,0.00,Acu-Link.com,2013-10-09 08:31:00,
2013-10-09 01:46:00,50.5,48.8,29.60,SSE,157,0.0,-999.0,94,-99.99,,,0.00,Acu-Link.com,2013-10-09 08:46:00,
2013-10-09 02:01:00,50.4,48.7,29.60,SSE,157,0.0,-999.0,94,-99.99,,,0.00,Acu-Link.com,2013-10-09 09:01:00,
2013-10-09 02:16:00,50.0,48.6,29.60,South,180,0.0,-999.0,95,-99.99,,,0.00,Acu-Link.com,2013-10-09 09:16:00,
2013-10-09 02:31:00,49.3,47.9,29.60,South,180,0.0,-999.0,95,-99.99,,,0.00,Acu-Link.com,2013-10-09 09:31:00,
2013-10-09 02:47:00,48.9,47.8,29.58,South,180,0.0,-999.0,96,-99.99,,,0.00,Acu-Link.com,2013-10-09 09:47:00,
2013-10-09 03:02:00,48.6,47.8,29.59,South,180,0.0,-999.0,97,-99.99,,,0.00,Acu-Link.com,2013-10-09 10:02:00,
2013-10-09 03:17:00,48.0,47.5,29.55,SSE,157,0.0,-999.0,98,-99.99,,,0.00,Acu-Link.com,2013-10-09 10:17:00,
2013-10-09 03:33:00,47.7,47.2,29.55,SSE,157,0.0,-999.0,98,-99.99,,,0.00,Acu-Link.com,2013-10-09 10:33:00,
2013-10-09 03:48:00,47.3,46.8,29.54,West,270,0.0,-999.0,98,-99.99,,,0.00,Acu-Link.com,2013-10-09 10:48:00,
2013-10-09 04:03:00,47.3,46.8,29.55,SSW,202,0.0,-999.0,98,-99.99,,,0.00,Acu-Link.com,2013-10-09 11:03:00,
2013-10-09 04:18:00,47.1,46.6,29.56,WSW,247,0.0,-999.0,98,-99.99,,,0.00,Acu-Link.com,2013-10-09 11:18:00,
2013-10-09 04:33:00,46.8,46.3,29.55,ESE,112,0.0,-999.0,98,-99.99,,,0.00,Acu-Link.com,2013-10-09 11:33:00,
2013-10-09 04:48:00,46.9,46.4,29.55,SSW,202,0.0,-999.0,98,-99.99,,,0.00,Acu-Link.com,2013-10-09 11:48:00,
2013-10-09 05:03:00,46.8,46.3,29.54,NE,45,0.0,-999.0,98,-99.99,,,0.00,Acu-Link.com,2013-10-09 12:03:00,
2013-10-09 05:18:00,46.4,45.9,29.55,NW,315,0.0,-999.0,98,-99.99,,,0.00,Acu-Link.com,2013-10-09 12:18:00,
2013-10-09 05:33:00,46.8,46.3,29.54,ESE,112,0.0,-999.0,98,-99.99,,,0.00,Acu-Link.com,2013-10-09 12:33:00,
2013-10-09 05:49:00,47.1,46.6,29.54,South,180,0.0,-999.0,98,-99.99,,,0.00,Acu-Link.com,2013-10-09 12:49:00,
2013-10-09 06:04:00,47.7,47.2,29.53,NNE,22,0.0,-999.0,98,-99.99,,,0.00,Acu-Link.com,2013-10-09 13:04:00,
2013-10-09 06:19:00,47.8,47.3,29.54,South,180,0.0,-999.0,98,-99.99,,,0.00,Acu-Link.com,2013-10-09 13:19:00,
2013-10-09 06:34:00,48.0,47.5,29.54,SSE,157,0.0,-999.0,98,-99.99,,,0.00,Acu-Link.com,2013-10-09 13:34:00,
2013-10-09 06:49:00,47.8,47.3,29.54,SSE,157,0.0,-999.0,98,-99.99,,,0.00,Acu-Link.com,2013-10-09 13:49:00,
2013-10-09 07:06:00,47.7,47.2,29.53,SSE,157,0.0,-999.0,98,-99.99,,,0.00,Acu-Link.com,2013-10-09 14:06:00,
2013-10-09 07:21:00,47.7,47.2,29.53,SE,135,0.0,-999.0,98,-99.99,,,0.00,Acu-Link.com,2013-10-09 14:21:00,
2013-10-09 07:37:00,47.5,47.0,29.54,SSE,157,0.0,-999.0,98,-99.99,,,0.00,Acu-Link.com,2013-10-09 14:37:00,
2013-10-09 07:52:00,47.1,46.6,29.54,South,180,0.0,-999.0,98,-99.99,,,0.00,Acu-Link.com,2013-10-09 14:52:00,
2013-10-09 08:07:00,47.5,47.0,29.55,South,180,0.0,-999.0,98,-99.99,,,0.00,Acu-Link.com,2013-10-09 15:07:00,
2013-10-09 08:22:00,48.6,48.1,29.55,NNE,22,0.0,-999.0,98,-99.99,,,0.00,Acu-Link.com,2013-10-09 15:22:00,
2013-10-09 08:37:00,49.6,49.1,29.55,West,270,0.0,-999.0,98,-99.99,,,0.00,Acu-Link.com,2013-10-09 15:37:00,
2013-10-09 08:52:00,50.9,50.4,29.55,NW,315,0.0,-999.0,98,-99.99,,,0.00,Acu-Link.com,2013-10-09 15:52:00,
2013-10-09 09:07:00,51.8,51.3,29.55,East,90,0.0,-999.0,98,-99.99,,,0.00,Acu-Link.com,2013-10-09 16:07:00,
2013-10-09 09:23:00,52.7,51.9,29.56,NNE,22,1.1,-999.0,97,-99.99,,,0.00,Acu-Link.com,2013-10-09 16:23:00,
2013-10-09 09:38:00,53.8,52.1,29.56,North,0,0.0,-999.0,94,-99.99,,,0.00,Acu-Link.com,2013-10-09 16:38:00,
2013-10-09 09:53:00,54.9,52.6,29.55,ESE,112,0.0,-999.0,92,-99.99,,,0.00,Acu-Link.com,2013-10-09 16:53:00,
2013-10-09 10:08:00,55.8,52.3,29.55,WSW,247,1.1,-999.0,88,-99.99,,,0.00,Acu-Link.com,2013-10-09 17:08:00,
2013-10-09 10:23:00,57.0,52.5,29.55,NNE,22,3.2,-999.0,85,-99.99,,,0.00,Acu-Link.com,2013-10-09 17:23:00,
2013-10-09 10:38:00,57.7,52.2,29.55,NE,45,0.0,-999.0,82,-99.99,,,0.00,Acu-Link.com,2013-10-09 17:38:00,
2013-10-09 10:54:00,57.4,51.3,29.55,ESE,112,0.0,-999.0,80,-99.99,,,0.00,Acu-Link.com,2013-10-09 17:54:00,
2013-10-09 11:09:00,57.7,51.2,29.55,SSE,157,0.0,-999.0,79,-99.99,,,0.00,Acu-Link.com,2013-10-09 18:09:00,
2013-10-09 11:24:00,59.0,51.8,29.56,North,0,0.0,-999.0,77,-99.99,,,0.00,Acu-Link.com,2013-10-09 18:24:00,
2013-10-09 11:39:00,60.8,52.5,29.56,SSE,157,2.2,-999.0,74,-99.99,,,0.00,Acu-Link.com,2013-10-09 18:39:00,
2013-10-09 11:54:00,61.0,51.5,29.55,NE,45,0.0,-999.0,71,-99.99,,,0.00,Acu-Link.com,2013-10-09 18:54:00,
2013-10-09 12:09:00,63.1,52.0,29.55,West,270,1.7,-999.0,67,-99.99,,,0.00,Acu-Link.com,2013-10-09 19:09:00,
2013-10-09 12:24:00,63.5,52.3,29.55,SE,135,0.0,-999.0,67,-99.99,,,0.00,Acu-Link.com,2013-10-09 19:24:00,
2013-10-09 12:39:00,64.9,52.8,29.55,NNE,22,0.0,-999.0,65,-99.99,,,0.00,Acu-Link.com,2013-10-09 19:39:00,
2013-10-09 12:55:00,65.7,51.4,29.54,ESE,112,3.2,-999.0,60,-99.99,,,0.00,Acu-Link.com,2013-10-09 19:55:00,
2013-10-09 13:10:00,66.0,51.7,29.54,West,270,1.1,-999.0,60,-99.99,,,0.00,Acu-Link.com,2013-10-09 20:10:00,
2013-10-09 13:25:00,67.5,52.2,29.54,South,180,1.1,-999.0,58,-99.99,,,0.00,Acu-Link.com,2013-10-09 20:25:00,
2013-10-09 13:48:00,67.5,52.2,29.54,West,270,0.0,-999.0,58,-99.99,,,0.00,Acu-Link.com,2013-10-09 20:48:00,
2013-10-09 14:03:00,68.4,51.6,29.53,NNE,22,1.1,-999.0,55,-99.99,,,0.00,Acu-Link.com,2013-10-09 21:03:00,
2013-10-09 14:19:00,68.7,51.9,29.53,SSE,157,0.0,-999.0,55,-99.99,,,0.00,Acu-Link.com,2013-10-09 21:19:00,
2013-10-09 14:36:00,68.7,51.4,29.53,ESE,112,1.1,-999.0,54,-99.99,,,0.00,Acu-Link.com,2013-10-09 21:36:00,
2013-10-09 15:07:00,69.3,51.9,29.54,WNW,292,1.7,-999.0,54,-99.99,,,0.00,Acu-Link.com,2013-10-09 22:07:00,
2013-10-09 15:34:00,69.4,51.5,29.53,North,0,0.0,-999.0,53,-99.99,,,0.00,Acu-Link.com,2013-10-09 22:34:00,
2013-10-09 15:50:00,70.0,52.1,29.54,North,0,1.7,-999.0,53,-99.99,,,0.00,Acu-Link.com,2013-10-09 22:50:00,
2013-10-09 16:06:00,71.2,52.1,29.55,NE,45,1.1,-999.0,51,-99.99,,,0.00,Acu-Link.com,2013-10-09 23:06:00,
2013-10-09 16:21:00,70.7,52.2,29.54,NNW,337,2.2,-999.0,52,-99.99,,,0.00,Acu-Link.com,2013-10-09 23:21:00,
2013-10-09 16:36:00,69.6,52.2,29.55,NNE,22,1.1,-999.0,54,-99.99,,,0.00,Acu-Link.com,2013-10-09 23:36:00,
2013-10-09 16:52:00,69.4,52.0,29.56,NW,315,2.7,-999.0,54,-99.99,,,0.00,Acu-Link.com,2013-10-09 23:52:00,
2013-10-09 17:07:00,67.1,52.3,29.56,East,90,1.7,-999.0,59,-99.99,,,0.00,Acu-Link.com,2013-10-10 00:07:00,
2013-10-09 17:29:00,66.4,52.5,29.57,NE,45,1.7,-999.0,61,-99.99,,,0.00,Acu-Link.com,2013-10-10 00:29:00,
2013-10-09 17:45:00,65.3,51.5,29.57,NE,45,3.7,-999.0,61,-99.99,,,0.00,Acu-Link.com,2013-10-10 00:45:00,
2013-10-09 18:03:00,64.4,50.7,29.58,NE,45,0.0,-999.0,61,-99.99,,,0.00,Acu-Link.com,2013-10-10 01:03:00,
2013-10-09 18:22:00,63.5,50.2,29.58,SW,225,0.0,-999.0,62,-99.99,,,0.00,Acu-Link.com,2013-10-10 01:22:00,
2013-10-09 18:37:00,62.8,49.6,29.59,NE,45,0.0,-999.0,62,-99.99,,,0.00,Acu-Link.com,2013-10-10 01:37:00,
2013-10-09 18:52:00,61.9,49.2,29.59,NW,315,0.0,-999.0,63,-99.99,,,0.00,Acu-Link.com,2013-10-10 01:52:00,
2013-10-09 19:08:00,61.3,49.0,29.59,North,0,3.2,-999.0,64,-99.99,,,0.00,Acu-Link.com,2013-10-10 02:08:00,
2013-10-09 19:23:00,60.6,49.2,29.60,SSE,157,0.0,-999.0,66,-99.99,,,0.00,Acu-Link.com,2013-10-10 02:23:00,
2013-10-09 19:38:00,59.9,49.3,29.60,SSE,157,0.0,-999.0,68,-99.99,,,0.00,Acu-Link.com,2013-10-10 02:38:00,
2013-10-09 19:53:00,58.6,48.8,29.60,NE,45,0.0,-999.0,70,-99.99,,,0.00,Acu-Link.com,2013-10-10 02:53:00,
2013-10-09 20:09:00,57.7,48.7,29.61,NE,45,0.0,-999.0,72,-99.99,,,0.00,Acu-Link.com,2013-10-10 03:09:00,
2013-10-09 20:24:00,57.2,48.3,29.62,SE,135,0.0,-999.0,72,-99.99,,,0.00,Acu-Link.com,2013-10-10 03:24:00,
2013-10-09 20:39:00,56.7,48.5,29.62,ENE,67,0.0,-999.0,74,-99.99,,,0.00,Acu-Link.com,2013-10-10 03:39:00,
2013-10-09 20:54:00,55.9,48.1,29.63,North,0,0.0,-999.0,75,-99.99,,,0.00,Acu-Link.com,2013-10-10 03:54:00,
2013-10-09 21:09:00,55.2,47.8,29.63,NW,315,0.0,-999.0,76,-99.99,,,0.00,Acu-Link.com,2013-10-10 04:09:00,
2013-10-09 21:24:00,54.5,47.4,29.63,NE,45,0.0,-999.0,77,-99.99,,,0.00,Acu-Link.com,2013-10-10 04:24:00,
2013-10-09 21:40:00,53.8,47.1,29.63,NNW,337,0.0,-999.0,78,-99.99,,,0.00,Acu-Link.com,2013-10-10 04:40:00,
2013-10-09 21:55:00,53.2,46.9,29.63,South,180,0.0,-999.0,79,-99.99,,,0.00,Acu-Link.com,2013-10-10 04:55:00,
2013-10-09 22:10:00,52.9,46.9,29.63,NNW,337,0.0,-999.0,80,-99.99,,,0.00,Acu-Link.com,2013-10-10 05:10:00,
2013-10-09 22:25:00,52.7,47.0,29.64,West,270,0.0,-999.0,81,-99.99,,,0.00,Acu-Link.com,2013-10-10 05:25:00,
2013-10-09 22:41:00,52.2,46.9,29.64,North,0,0.0,-999.0,82,-99.99,,,0.00,Acu-Link.com,2013-10-10 05:41:00,
2013-10-09 22:57:00,52.0,46.7,29.64,NNW,337,0.0,-999.0,82,-99.99,,,0.00,Acu-Link.com,2013-10-10 05:57:00,
2013-10-09 23:12:00,51.6,46.3,29.65,WNW,292,0.0,-999.0,82,-99.99,,,0.00,Acu-Link.com,2013-10-10 06:12:00,
2013-10-09 23:27:00,51.3,46.0,29.65,WNW,292,0.0,-999.0,82,-99.99,,,0.00,Acu-Link.com,2013-10-10 06:27:00,
2013-10-09 23:42:00,50.9,45.6,29.65,WNW,292,0.0,-999.0,82,-99.99,,,0.00,Acu-Link.com,2013-10-10 06:42:00,
2013-10-09 23:57:00,50.5,45.5,29.65,NNW,337,0.0,-999.0,83,-99.99,,,0.00,Acu-Link.com,2013-10-10 06:57:00,